createdAt,value
2022-11-09T00:01:32.567Z,6.73
2022-11-09T00:04:02.019Z,6.63
2022-11-09T00:06:30.927Z,6.49
2022-11-09T00:09:07.152Z,6.42
2022-11-09T00:11:36.060Z,6.46
2022-11-09T00:14:04.245Z,6.56
2022-11-09T00:16:32.245Z,6.50
2022-11-09T00:19:00.321Z,6.56
2022-11-09T00:21:28.362Z,6.59
2022-11-09T00:23:56.340Z,6.65
2022-11-09T00:26:26.262Z,6.50
2022-11-09T00:28:54.425Z,6.52
2022-11-09T00:31:23.463Z,6.28
2022-11-09T00:33:52.204Z,6.31
2022-11-09T00:36:21.548Z,6.35
2022-11-09T00:38:50.873Z,6.22
2022-11-09T00:41:19.243Z,6.20
2022-11-09T00:43:49.120Z,6.15
2022-11-09T00:46:17.731Z,6.27
2022-11-09T00:48:45.966Z,6.21
2022-11-09T00:51:14.321Z,6.25
2022-11-09T00:53:43.556Z,6.23
2022-11-09T00:56:13.656Z,6.23
2022-11-09T00:58:42.586Z,6.22
2022-11-09T01:01:13.990Z,6.22
2022-11-09T01:03:44.108Z,6.16
2022-11-09T01:06:15.611Z,6.05
2022-11-09T01:08:44.865Z,5.92
2022-11-09T01:11:13.061Z,5.84
2022-11-09T01:13:41.541Z,5.81
2022-11-09T01:16:12.628Z,5.83
2022-11-09T01:18:41.338Z,5.83
2022-11-09T01:21:11.358Z,5.79
2022-11-09T01:23:39.619Z,5.80
2022-11-09T01:26:09.534Z,5.81
2022-11-09T01:28:37.825Z,5.83
2022-11-09T01:31:07.997Z,5.85
2022-11-09T01:33:37.610Z,5.80
2022-11-09T01:36:06.277Z,5.82
2022-11-09T01:38:34.371Z,5.93
2022-11-09T01:41:02.387Z,5.77
2022-11-09T01:43:30.483Z,5.78
2022-11-09T01:46:03.132Z,5.65
2022-11-09T01:48:37.529Z,5.23
2022-11-09T01:51:08.785Z,5.30
2022-11-09T01:53:40.104Z,5.45
2022-11-09T01:56:11.568Z,5.46
2022-11-09T01:58:43.338Z,5.50
2022-11-09T02:01:12.004Z,5.50
2022-11-09T02:03:45.234Z,5.56
2022-11-09T02:06:15.200Z,5.55
2022-11-09T02:08:43.753Z,5.56
2022-11-09T02:11:14.569Z,5.60
2022-11-09T02:13:44.775Z,5.52
2022-11-09T02:16:14.478Z,5.47
2022-11-09T02:18:50.244Z,5.50
2022-11-09T02:21:19.794Z,5.47
2022-11-09T02:23:48.776Z,5.41
2022-11-09T02:26:20.554Z,5.40
2022-11-09T02:28:48.705Z,5.44
2022-11-09T02:31:17.305Z,5.18
2022-11-09T02:33:55.324Z,5.21
2022-11-09T02:36:25.200Z,5.31
2022-11-09T02:38:54.572Z,5.40
2022-11-09T02:41:24.034Z,5.47
2022-11-09T02:43:53.588Z,5.41
2022-11-09T02:46:26.267Z,5.34
2022-11-09T02:48:54.331Z,5.30
2022-11-09T02:51:22.360Z,5.29
2022-11-09T02:53:52.130Z,5.26
2022-11-09T02:56:22.414Z,5.27
2022-11-09T02:58:50.445Z,5.36
2022-11-09T03:01:19.201Z,5.41
2022-11-09T03:03:47.375Z,5.39
2022-11-09T03:06:15.368Z,5.34
2022-11-09T03:08:45.999Z,5.32
2022-11-09T03:11:17.785Z,5.39
2022-11-09T03:14:10.987Z,5.31
2022-11-09T03:16:41.566Z,5.31
2022-11-09T03:19:11.348Z,5.25
2022-11-09T03:21:39.369Z,5.24
2022-11-09T03:24:08.125Z,5.28
2022-11-09T03:26:40.158Z,5.24
2022-11-09T03:29:08.641Z,5.17
2022-11-09T03:31:37.244Z,5.11
2022-11-09T03:34:08.838Z,5.10
2022-11-09T03:36:36.859Z,5.09
2022-11-09T03:39:04.979Z,4.82
2022-11-09T03:41:35.092Z,4.90
2022-11-09T03:44:04.845Z,4.87
2022-11-09T03:46:32.874Z,5.05
2022-11-09T03:49:01.147Z,4.93
2022-11-09T03:51:29.212Z,4.89
2022-11-09T03:53:57.228Z,4.89
2022-11-09T03:56:25.209Z,4.90
2022-11-09T03:58:53.234Z,4.88
2022-11-09T04:01:22.774Z,4.89
2022-11-09T04:03:50.841Z,4.88
2022-11-09T04:06:18.782Z,4.82
2022-11-09T04:08:51.155Z,4.90
2022-11-09T04:11:20.723Z,4.85
2022-11-09T04:13:48.773Z,4.89
2022-11-09T04:16:43.424Z,4.90
2022-11-09T04:19:12.535Z,4.92
2022-11-09T04:21:40.517Z,5.03
2022-11-09T04:24:08.648Z,5.03
2022-11-09T04:26:36.668Z,5.00
2022-11-09T04:29:04.948Z,4.92
2022-11-09T04:31:33.058Z,4.89
2022-11-09T04:34:02.386Z,4.92
2022-11-09T04:36:30.371Z,4.88
2022-11-09T04:38:58.437Z,4.81
2022-11-09T04:41:26.468Z,4.85
2022-11-09T04:43:54.451Z,4.92
2022-11-09T04:46:22.503Z,4.69
2022-11-09T04:48:50.601Z,4.79
2022-11-09T04:51:20.192Z,4.81
2022-11-09T04:53:48.156Z,4.76
2022-11-09T04:56:16.211Z,4.82
2022-11-09T04:58:44.379Z,4.83
2022-11-09T05:01:14.808Z,4.79
2022-11-09T05:03:43.041Z,4.84
2022-11-09T05:06:25.163Z,4.79
2022-11-09T05:08:54.978Z,4.79
2022-11-09T05:11:23.411Z,4.88
2022-11-09T05:13:52.373Z,4.94
2022-11-09T05:16:20.937Z,4.95
2022-11-09T05:18:49.135Z,5.03
2022-11-09T05:21:17.323Z,4.94
2022-11-09T05:24:00.243Z,4.64
2022-11-09T05:26:31.548Z,4.60
2022-11-09T05:29:00.216Z,4.47
2022-11-09T05:31:28.793Z,4.47
2022-11-09T05:33:57.192Z,4.66
2022-11-09T05:36:25.275Z,4.51
2022-11-09T05:38:53.307Z,4.58
2022-11-09T05:41:21.592Z,4.61
2022-11-09T05:43:51.371Z,4.58
2022-11-09T05:46:20.116Z,4.51
2022-11-09T05:48:48.395Z,4.57
2022-11-09T05:51:16.883Z,4.46
2022-11-09T05:53:46.842Z,4.53
2022-11-09T05:56:15.921Z,4.43
2022-11-09T05:58:44.402Z,4.49
2022-11-09T06:01:15.626Z,4.47
2022-11-09T06:03:44.357Z,4.51
2022-11-09T06:06:14.133Z,4.55
2022-11-09T06:08:42.424Z,4.51
2022-11-09T06:11:16.823Z,4.42
2022-11-09T06:13:49.790Z,4.42
2022-11-09T06:16:19.132Z,4.51
2022-11-09T06:18:47.207Z,4.50
2022-11-09T06:21:15.270Z,4.48
2022-11-09T06:23:43.348Z,4.61
2022-11-09T06:26:12.588Z,4.61
2022-11-09T06:28:41.492Z,4.66
2022-11-09T06:31:13.008Z,4.74
2022-11-09T06:33:42.444Z,4.70
2022-11-09T06:36:11.001Z,4.75
2022-11-09T06:38:39.067Z,4.80
2022-11-09T06:41:07.238Z,4.82
2022-11-09T06:43:35.247Z,4.86
2022-11-09T06:46:04.130Z,4.82
2022-11-09T06:48:32.194Z,4.78
2022-11-09T06:51:05.582Z,4.69
2022-11-09T06:53:34.881Z,4.65
2022-11-09T06:56:04.098Z,4.75
2022-11-09T06:58:32.560Z,4.77
2022-11-09T07:01:00.918Z,4.82
2022-11-09T07:03:28.976Z,4.85
2022-11-09T07:05:57.008Z,4.86
2022-11-09T07:08:26.434Z,4.86
2022-11-09T07:10:54.459Z,4.88
2022-11-09T07:13:23.809Z,4.92
2022-11-09T07:15:54.812Z,4.99
2022-11-09T07:18:23.117Z,4.97
2022-11-09T07:20:51.283Z,4.89
2022-11-09T07:23:19.933Z,4.91
2022-11-09T07:25:49.582Z,5.05
2022-11-09T07:28:17.644Z,5.12
2022-11-09T07:30:45.709Z,5.12
2022-11-09T07:33:15.611Z,5.17
2022-11-09T07:35:43.722Z,5.22
2022-11-09T07:38:12.305Z,5.31
2022-11-09T07:40:40.802Z,5.38
2022-11-09T07:43:12.174Z,5.35
2022-11-09T07:45:41.838Z,5.26
2022-11-09T07:48:11.918Z,5.24
2022-11-09T07:50:41.302Z,5.29
2022-11-09T07:53:11.601Z,5.42
2022-11-09T07:55:39.729Z,5.51
2022-11-09T07:58:12.142Z,5.59
2022-11-09T08:00:41.557Z,5.67
2022-11-09T08:03:10.407Z,5.75
2022-11-09T08:05:38.995Z,5.81
2022-11-09T08:08:09.564Z,5.89
2022-11-09T08:10:38.305Z,5.96
2022-11-09T08:13:08.612Z,5.97
2022-11-09T08:15:38.293Z,6.02
2022-11-09T08:18:07.793Z,6.02
2022-11-09T08:20:36.208Z,6.05
2022-11-09T08:23:04.999Z,6.11
2022-11-09T08:25:34.413Z,6.20
2022-11-09T08:28:03.407Z,6.21
2022-11-09T08:30:31.652Z,6.28
2022-11-09T08:33:02.054Z,6.34
2022-11-09T08:35:30.767Z,6.37
2022-11-09T08:38:02.022Z,6.36
2022-11-09T08:40:30.605Z,6.43
2022-11-09T08:43:02.879Z,6.51
2022-11-09T08:45:31.839Z,6.53
2022-11-09T08:48:01.622Z,6.59
2022-11-09T08:50:30.514Z,6.64
2022-11-09T08:52:58.855Z,6.62
2022-11-09T08:55:26.913Z,6.71
2022-11-09T08:57:55.541Z,6.75
2022-11-09T09:00:23.900Z,6.82
2022-11-09T09:02:51.930Z,6.82
2022-11-09T09:05:21.844Z,6.88
2022-11-09T09:07:49.856Z,6.87
2022-11-09T09:10:18.008Z,6.97
2022-11-09T09:12:46.066Z,7.01
2022-11-09T09:15:14.119Z,7.08
2022-11-09T09:17:42.241Z,7.13
2022-11-09T09:20:10.444Z,7.17
2022-11-09T09:22:40.195Z,7.25
2022-11-09T09:25:09.654Z,7.21
2022-11-09T09:27:37.902Z,7.35
2022-11-09T09:30:07.063Z,7.44
2022-11-09T09:32:35.126Z,7.49
2022-11-09T09:35:03.122Z,7.57
2022-11-09T09:37:31.162Z,7.66
2022-11-09T09:40:00.594Z,7.71
2022-11-09T09:42:33.258Z,7.71
2022-11-09T09:45:04.117Z,7.74
2022-11-09T09:47:43.355Z,7.81
2022-11-09T09:50:14.153Z,7.88
2022-11-09T09:53:04.630Z,7.95
2022-11-09T09:55:39.029Z,7.95
2022-11-09T09:58:22.592Z,7.95
2022-11-09T10:00:54.033Z,7.99
2022-11-09T10:03:22.396Z,7.91
2022-11-09T10:05:57.304Z,8.02
2022-11-09T10:08:31.180Z,8.11
2022-11-09T10:11:10.596Z,8.09
2022-11-09T10:13:56.253Z,8.15
2022-11-09T10:16:29.205Z,8.19
2022-11-09T10:19:28.739Z,8.37
2022-11-09T10:22:02.083Z,8.47
2022-11-09T10:24:48.540Z,8.60
2022-11-09T10:27:27.387Z,8.73
2022-11-09T10:29:55.870Z,8.70
2022-11-09T10:32:25.049Z,8.82
2022-11-09T10:34:57.679Z,8.98
2022-11-09T10:37:29.141Z,9.09
2022-11-09T10:40:00.999Z,9.17
2022-11-09T10:42:50.903Z,9.26
2022-11-09T10:45:38.950Z,9.38
2022-11-09T10:48:32.177Z,9.39
2022-11-09T10:51:34.531Z,9.49
2022-11-09T10:54:22.668Z,9.65
2022-11-09T10:57:17.115Z,9.81
2022-11-09T11:00:06.364Z,9.95
2022-11-09T11:02:54.238Z,10.04
2022-11-09T11:05:41.206Z,10.14
2022-11-09T11:08:33.922Z,10.11
2022-11-09T11:11:34.863Z,10.09
2022-11-09T11:14:26.947Z,10.22
2022-11-09T11:18:04.880Z,10.40
2022-11-09T11:21:07.243Z,10.52
2022-11-09T11:24:13.659Z,10.62
2022-11-09T11:27:05.391Z,10.62
2022-11-09T11:30:00.772Z,10.55
2022-11-09T11:32:50.721Z,10.63
2022-11-09T11:35:42.187Z,10.73
2022-11-09T11:38:32.027Z,10.87
2022-11-09T11:41:37.194Z,11.00
2022-11-09T11:44:35.872Z,11.11
2022-11-09T11:47:26.877Z,11.25
2022-11-09T11:50:38.180Z,11.26
2022-11-09T11:53:43.035Z,11.36
2022-11-09T11:56:32.757Z,11.46
2022-11-09T11:59:34.778Z,11.54
2022-11-09T12:02:30.977Z,11.59
2022-11-09T12:05:32.660Z,11.61
2022-11-09T12:08:24.790Z,11.71
2022-11-09T12:11:16.835Z,11.85
2022-11-09T12:14:12.645Z,11.97
2022-11-09T12:17:07.330Z,12.01
2022-11-09T12:20:04.745Z,12.13
2022-11-09T12:22:59.329Z,12.25
2022-11-09T12:25:51.969Z,12.31
2022-11-09T12:28:51.935Z,12.41
2022-11-09T12:31:47.854Z,12.49
2022-11-09T12:34:38.740Z,12.55
2022-11-09T12:37:28.116Z,12.61
2022-11-09T12:40:22.274Z,12.66
2022-11-09T12:43:16.652Z,12.68
2022-11-09T12:46:05.695Z,12.77
2022-11-09T12:48:52.421Z,12.73
2022-11-09T12:51:39.263Z,12.61
2022-11-09T12:54:26.311Z,12.70
2022-11-09T12:57:15.360Z,12.88
2022-11-09T13:00:04.341Z,12.87
2022-11-09T13:02:55.094Z,12.99
2022-11-09T13:05:43.083Z,13.13
2022-11-09T13:08:32.228Z,13.23
2022-11-09T13:11:23.186Z,13.29
2022-11-09T13:14:39.079Z,13.31
2022-11-09T13:17:54.347Z,13.10
2022-11-09T13:21:00.691Z,13.09
2022-11-09T13:24:00.478Z,13.13
2022-11-09T13:26:59.566Z,13.20
2022-11-09T13:33:23.966Z,12.90
2022-11-09T13:36:19.126Z,12.88
2022-11-09T13:39:39.068Z,13.08
2022-11-09T13:42:29.151Z,13.08
2022-11-09T13:45:30.890Z,13.16
2022-11-09T13:48:45.582Z,13.18
2022-11-09T13:51:50.040Z,13.34
2022-11-09T13:54:37.394Z,13.32
2022-11-09T13:57:25.055Z,13.35
2022-11-09T14:00:18.978Z,13.45
2022-11-09T14:03:18.283Z,13.43
2022-11-09T14:06:06.896Z,13.50
2022-11-09T14:08:53.547Z,13.38
2022-11-09T14:11:57.199Z,13.49
2022-11-09T14:14:55.811Z,13.49
2022-11-09T14:17:48.075Z,13.54
2022-11-09T14:20:40.672Z,13.55
2022-11-09T14:23:32.420Z,13.56
2022-11-09T14:26:21.173Z,13.51
2022-11-09T14:29:17.447Z,13.54
2022-11-09T14:32:20.096Z,13.55
2022-11-09T14:35:24.959Z,13.56
2022-11-09T14:38:18.237Z,13.46
2022-11-09T14:41:06.739Z,13.47
2022-11-09T14:43:53.758Z,13.30
2022-11-09T14:46:40.556Z,12.90
2022-11-09T14:50:01.541Z,13.05
2022-11-09T14:52:48.491Z,13.16
2022-11-09T14:55:35.610Z,13.16
2022-11-09T14:58:24.054Z,12.85
2022-11-09T15:01:21.167Z,12.95
2022-11-09T15:04:12.781Z,12.97
2022-11-09T15:07:02.489Z,13.04
2022-11-09T15:09:51.266Z,12.78
2022-11-09T15:12:42.536Z,12.75
2022-11-09T15:15:35.162Z,12.81
2022-11-09T15:18:25.950Z,12.92
2022-11-09T15:21:18.415Z,13.00
2022-11-09T15:24:12.625Z,12.82
2022-11-09T15:26:59.147Z,12.83
2022-11-09T15:29:45.966Z,12.74
2022-11-09T15:32:36.353Z,12.79
2022-11-09T15:35:23.726Z,12.76
2022-11-09T15:38:32.102Z,12.59
2022-11-09T15:41:21.705Z,12.64
2022-11-09T15:44:08.950Z,12.74
2022-11-09T15:46:56.123Z,12.79
2022-11-09T15:49:44.087Z,12.81
2022-11-09T15:52:31.036Z,12.76
2022-11-09T15:55:21.929Z,12.77
2022-11-09T15:58:11.901Z,12.63
2022-11-09T16:00:58.446Z,12.49
2022-11-09T16:03:45.220Z,12.28
2022-11-09T16:06:33.351Z,12.42
2022-11-09T16:09:19.621Z,12.47
2022-11-09T16:12:06.420Z,12.49
2022-11-09T16:14:52.993Z,12.48
2022-11-09T16:17:39.665Z,12.47
2022-11-09T16:20:26.555Z,12.42
2022-11-09T16:23:14.483Z,12.31
2022-11-09T16:26:00.798Z,12.11
2022-11-09T16:28:47.512Z,12.17
2022-11-09T16:31:50.834Z,12.19
2022-11-09T16:34:37.979Z,12.18
2022-11-09T16:37:24.749Z,12.15
2022-11-09T16:40:14.685Z,12.13
2022-11-09T16:43:01.780Z,12.11
2022-11-09T16:45:50.185Z,12.08
2022-11-09T16:48:36.948Z,12.05
2022-11-09T16:51:23.328Z,12.03
2022-11-09T16:54:09.506Z,12.00
2022-11-09T16:56:57.739Z,11.98
2022-11-09T16:59:44.223Z,11.97
2022-11-09T17:02:31.978Z,11.96
2022-11-09T17:05:18.781Z,11.93
2022-11-09T17:08:05.613Z,11.91
2022-11-09T17:10:52.198Z,11.88
2022-11-09T17:13:40.439Z,11.86
2022-11-09T17:16:27.312Z,11.80
2022-11-09T17:19:14.747Z,11.80
2022-11-09T17:22:01.504Z,11.62
2022-11-09T17:24:48.212Z,11.69
2022-11-09T17:27:34.814Z,11.51
2022-11-09T17:30:24.274Z,11.57
2022-11-09T17:33:10.674Z,11.58
2022-11-09T17:36:00.871Z,11.59
2022-11-09T17:38:47.371Z,11.58
2022-11-09T17:41:37.450Z,11.54
2022-11-09T17:44:27.017Z,11.31
2022-11-09T17:47:14.979Z,11.34
2022-11-09T17:50:01.810Z,11.24
2022-11-09T17:52:48.500Z,11.32
2022-11-09T17:55:38.029Z,11.36
2022-11-09T17:58:24.698Z,11.37
2022-11-09T18:01:13.808Z,11.38
2022-11-09T18:04:06.244Z,11.36
2022-11-09T18:06:53.449Z,11.38
2022-11-09T18:09:41.924Z,11.37
2022-11-09T18:12:28.942Z,11.34
2022-11-09T18:15:16.004Z,11.31
2022-11-09T18:18:02.751Z,11.32
2022-11-09T18:20:51.029Z,11.33
2022-11-09T18:23:37.982Z,11.33
2022-11-09T18:26:24.576Z,11.34
2022-11-09T18:29:11.428Z,11.32
2022-11-09T18:31:58.108Z,11.23
2022-11-09T18:34:44.743Z,11.27
2022-11-09T18:37:35.754Z,11.21
2022-11-09T18:40:22.191Z,11.24
2022-11-09T18:43:09.041Z,11.25
2022-11-09T18:45:57.341Z,11.26
2022-11-09T18:48:44.588Z,11.27
2022-11-09T18:51:31.276Z,11.26
2022-11-09T18:54:19.243Z,11.25
2022-11-09T18:57:06.003Z,11.24
2022-11-09T18:59:52.359Z,11.23
2022-11-09T19:02:39.599Z,11.22
2022-11-09T19:05:26.698Z,11.19
2022-11-09T19:08:13.327Z,11.17
2022-11-09T19:11:06.401Z,11.18
2022-11-09T19:13:53.248Z,11.18
2022-11-09T19:16:39.999Z,11.17
2022-11-09T19:19:27.168Z,11.16
2022-11-09T19:22:16.898Z,11.15
2022-11-09T19:25:03.471Z,11.13
2022-11-09T19:27:51.427Z,11.11
2022-11-09T19:30:38.139Z,11.08
2022-11-09T19:33:25.798Z,11.08
2022-11-09T19:36:29.833Z,11.07
2022-11-09T19:39:18.130Z,11.09
2022-11-09T19:42:04.858Z,11.08
2022-11-09T19:44:56.455Z,11.03
2022-11-09T19:47:43.589Z,11.02
2022-11-09T19:50:30.365Z,10.97
2022-11-09T19:53:17.016Z,10.97
2022-11-09T19:56:08.403Z,10.96
2022-11-09T19:58:57.262Z,10.84
2022-11-09T20:01:45.436Z,10.84
2022-11-09T20:04:33.099Z,10.87
2022-11-09T20:07:20.212Z,10.84
2022-11-09T20:10:09.023Z,10.88
2022-11-09T20:12:56.152Z,10.92
2022-11-09T20:15:42.740Z,10.91
2022-11-09T20:18:31.292Z,10.92
2022-11-09T20:21:18.032Z,10.88
2022-11-09T20:24:05.067Z,10.79
2022-11-09T20:26:52.177Z,10.80
2022-11-09T20:29:39.077Z,10.81
2022-11-09T20:32:26.271Z,10.77
2022-11-09T20:35:14.368Z,10.92
2022-11-09T20:38:01.152Z,10.88
2022-11-09T20:40:54.326Z,10.85
2022-11-09T20:43:41.768Z,10.82
2022-11-09T20:46:34.350Z,10.90
2022-11-09T20:49:23.322Z,10.96
2022-11-09T20:52:11.475Z,10.96
2022-11-09T20:54:58.055Z,11.02
2022-11-09T20:57:44.533Z,11.04
2022-11-09T21:00:31.433Z,11.06
2022-11-09T21:03:17.836Z,11.07
2022-11-09T21:06:06.734Z,11.03
2022-11-09T21:08:56.040Z,11.08
2022-11-09T21:11:56.822Z,11.07
2022-11-09T21:14:43.354Z,11.09
2022-11-09T21:17:30.118Z,11.06
2022-11-09T21:20:16.551Z,11.08
2022-11-09T21:23:20.835Z,11.11
2022-11-09T21:26:27.785Z,11.06
2022-11-09T21:29:33.638Z,11.02
2022-11-09T21:32:20.987Z,10.86
2022-11-09T21:35:08.497Z,10.83
2022-11-09T21:37:57.450Z,10.83
2022-11-09T21:40:43.987Z,10.82
2022-11-09T21:43:31.827Z,10.81
2022-11-09T21:46:18.259Z,10.91
2022-11-09T21:49:05.215Z,10.95
2022-11-09T21:51:52.021Z,11.00
2022-11-09T21:54:38.995Z,10.89
2022-11-09T21:57:25.423Z,10.97
2022-11-09T22:00:15.425Z,11.04
2022-11-09T22:03:03.480Z,11.03
2022-11-09T22:05:50.528Z,11.03
2022-11-09T22:08:37.084Z,11.03
2022-11-09T22:11:45.977Z,11.00
2022-11-09T22:14:50.266Z,11.01
2022-11-09T22:17:38.225Z,10.89
2022-11-09T22:20:42.520Z,10.71
2022-11-09T22:23:29.492Z,10.75
2022-11-09T22:26:16.348Z,10.78
2022-11-09T22:29:03.288Z,10.67
2022-11-09T22:31:49.899Z,10.72
2022-11-09T22:34:38.283Z,10.67
2022-11-09T22:37:24.859Z,10.71
2022-11-09T22:40:11.888Z,10.68
2022-11-09T22:42:58.501Z,10.82
2022-11-09T22:45:45.509Z,10.64
2022-11-09T22:48:32.392Z,10.71
2022-11-09T22:51:21.018Z,10.64
2022-11-09T22:54:07.888Z,10.58
2022-11-09T22:56:54.392Z,10.50
2022-11-09T22:59:41.633Z,10.44
2022-11-09T23:02:28.071Z,10.48
2022-11-09T23:05:14.594Z,10.44
2022-11-09T23:08:02.613Z,10.45
2022-11-09T23:10:55.672Z,10.53
2022-11-09T23:13:43.439Z,10.54
2022-11-09T23:16:30.281Z,10.50
2022-11-09T23:19:16.027Z,10.41
2022-11-09T23:22:03.014Z,10.47
2022-11-09T23:25:08.150Z,10.46
2022-11-09T23:27:55.001Z,10.39
2022-11-09T23:30:41.468Z,10.37
2022-11-09T23:33:28.288Z,10.44
2022-11-09T23:36:14.674Z,10.49
2022-11-09T23:39:01.075Z,10.44
2022-11-09T23:41:49.198Z,10.47
2022-11-09T23:44:35.715Z,10.45
2022-11-09T23:47:22.207Z,10.41
2022-11-09T23:50:09.085Z,10.42
2022-11-09T23:52:57.791Z,10.40
2022-11-09T23:55:44.265Z,10.39
2022-11-09T23:58:32.709Z,10.41
